ASN logo
ASN Wikibase Occurrence # 212473
Last updated: 20 November 2018
This information is added by users of ASN. Neither ASN nor the Flight Safety Foundation are responsible for the completeness or correctness of this information. If you feel this information is incomplete or incorrect, you can submit corrected information.

Date:21-JUN-2018
Time:14:58 UTC
Type:Silhouette image of generic B744 model; specific model in this crash may look slightly different
Boeing 747-409F
Owner/operator:China Airlines Cargo
Registration: B-18711
C/n / msn: 30768
Fatalities:Fatalities: 0 / Occupants: 2
Other fatalities:0
Aircraft damage: Minor
Category:Incident
Location:Chicago-O'Hare International Airport, IL (ORD/KORD) -   United States of America
Phase: Landing
Nature:Cargo
Departure airport:Anchorage-Ted Stevens International Airport, AK (ANC/PANC)
Destination airport:Chicago-O'Hare International Airport, IL (ORD/KORD)
Narrative:
China Airlines Cargo flight CI5148 performed a go-around after touching down in the grass during an attempted landing on runway 10L at Chicago-O'Hare International Airport, Illinois, USA.
The runway was subsequently closed for about 50 minutes and an inspection vehicle reported finding debris on the runway.
Flight 5148 circled and landed safely on runway 09R at 15:20 UTC.

Subsequent Notams stated that the Wind Direction Indicator (WDI) for runway 10L was out of service and an irregular surface was noted on the north side of runway 10L between taxiways DD and N1. The windsock is also located on the grass between DD and N1, north of 10L at a distance of about 1160 meters from the runway threshold and 42 meters to the left of the runway edge.

Notams issued after the incident:
!ORD 06/890 ORD AD AP WDI FOR RWY 10L OUT OF SERVICE 1806211547-1807262300
CREATED: 21 Jun 2018 15:47:00
SOURCE: ORD

!ORD 06/889 ORD RWY 10L/28R SAFETY AREA IRREGULAR SFC N SIDE BTN TWY DD AND TWY N1 1806211540-1807141100
CREATED: 21 Jun 2018 15:40:00
SOURCE: ORD

Weather reported about the incident time:
KORD 211543Z 07011KT 3SM -RA BR OVC005 19/18 A2977 RMK AO2 LTG DSNT SE P0015 T01890178
KORD 211451Z 06012KT 2 1/2SM RA BR OVC006 19/18 A2978 RMK AO2 LTG DSNT E SLP080 P0025 60056 T01890178 58001

Sources:

https://www.liveatc.net/search/?icao=KORD
https://www.flightradar24.com/data/flights/ci5148#1cd95a3e
KORD airport chart: http://aeronav.faa.gov/d-tpp/1807/00166ad.pdf#nameddest=(ORD)
FAA

https://youtu.be/yYiSrTUyXbo


Images:


Revision history:

Date/timeContributorUpdates
21-Jun-2018 20:54 harro Added
21-Jun-2018 20:58 harro Updated [Narrative]
21-Jun-2018 21:02 harro Updated [Narrative]
22-Jun-2018 14:56 harro Updated [Total occupants, Source, Damage, Narrative]
22-Jun-2018 15:11 harro Updated [Narrative, Photo, ]
16-Jul-2018 16:22 Anon. Updated [Total occupants]
22-Jul-2018 07:43 Marty Updated [Source]

Corrections or additions? ... Edit this accident description